sensor_id;sensor_type;location;lat;lon;timestamp;P1;durP1;ratioP1;P2;durP2;ratioP2
69985;SDS011;57328;52.054;5.294;2023-02-21T00:01:43;37.63;;;12.93;;
69985;SDS011;57328;52.054;5.294;2023-02-21T00:04:29;34.70;;;12.95;;
69985;SDS011;57328;52.054;5.294;2023-02-21T00:07:15;36.72;;;13.52;;
69985;SDS011;57328;52.054;5.294;2023-02-21T00:10:01;34.08;;;12.50;;
69985;SDS011;57328;52.054;5.294;2023-02-21T00:12:47;35.00;;;12.65;;
69985;SDS011;57328;52.054;5.294;2023-02-21T00:15:33;35.10;;;11.90;;
69985;SDS011;57328;52.054;5.294;2023-02-21T00:18:19;36.00;;;13.55;;
69985;SDS011;57328;52.054;5.294;2023-02-21T00:21:05;33.97;;;11.65;;
69985;SDS011;57328;52.054;5.294;2023-02-21T00:23:51;40.10;;;14.02;;
69985;SDS011;57328;52.054;5.294;2023-02-21T00:26:37;36.53;;;13.65;;
69985;SDS011;57328;52.054;5.294;2023-02-21T00:29:22;35.78;;;12.07;;
69985;SDS011;57328;52.054;5.294;2023-02-21T00:32:08;37.83;;;11.90;;
69985;SDS011;57328;52.054;5.294;2023-02-21T00:34:54;40.17;;;13.05;;
69985;SDS011;57328;52.054;5.294;2023-02-21T00:37:40;31.73;;;10.80;;
69985;SDS011;57328;52.054;5.294;2023-02-21T00:40:26;28.20;;;10.10;;
69985;SDS011;57328;52.054;5.294;2023-02-21T00:43:12;43.33;;;12.23;;
69985;SDS011;57328;52.054;5.294;2023-02-21T00:46:01;34.63;;;12.52;;
69985;SDS011;57328;52.054;5.294;2023-02-21T00:48:47;37.97;;;12.38;;
69985;SDS011;57328;52.054;5.294;2023-02-21T00:51:33;35.20;;;12.18;;
69985;SDS011;57328;52.054;5.294;2023-02-21T00:54:19;35.20;;;11.95;;
69985;SDS011;57328;52.054;5.294;2023-02-21T00:57:05;39.92;;;13.02;;
69985;SDS011;57328;52.054;5.294;2023-02-21T00:59:51;44.13;;;13.80;;
69985;SDS011;57328;52.054;5.294;2023-02-21T01:02:36;38.20;;;13.35;;
69985;SDS011;57328;52.054;5.294;2023-02-21T01:05:22;42.65;;;13.65;;
69985;SDS011;57328;52.054;5.294;2023-02-21T01:08:09;43.20;;;12.68;;
69985;SDS011;57328;52.054;5.294;2023-02-21T01:10:54;42.13;;;12.98;;
69985;SDS011;57328;52.054;5.294;2023-02-21T01:13:41;39.80;;;13.30;;
69985;SDS011;57328;52.054;5.294;2023-02-21T01:16:29;43.03;;;12.85;;
69985;SDS011;57328;52.054;5.294;2023-02-21T01:19:15;42.40;;;13.77;;
69985;SDS011;57328;52.054;5.294;2023-02-21T01:22:02;41.35;;;12.68;;
69985;SDS011;57328;52.054;5.294;2023-02-21T01:24:49;43.20;;;13.05;;
69985;SDS011;57328;52.054;5.294;2023-02-21T01:27:35;41.45;;;14.65;;
69985;SDS011;57328;52.054;5.294;2023-02-21T01:30:21;33.70;;;12.45;;
69985;SDS011;57328;52.054;5.294;2023-02-21T01:33:07;42.22;;;13.45;;
69985;SDS011;57328;52.054;5.294;2023-02-21T01:35:53;49.25;;;13.85;;
69985;SDS011;57328;52.054;5.294;2023-02-21T01:38:39;42.42;;;14.85;;
69985;SDS011;57328;52.054;5.294;2023-02-21T01:41:25;46.90;;;14.73;;
69985;SDS011;57328;52.054;5.294;2023-02-21T01:47:15;43.95;;;13.90;;
69985;SDS011;57328;52.054;5.294;2023-02-21T01:50:03;44.05;;;14.40;;
69985;SDS011;57328;52.054;5.294;2023-02-21T01:52:49;44.10;;;15.32;;
69985;SDS011;57328;52.054;5.294;2023-02-21T01:55:35;41.83;;;13.93;;
69985;SDS011;57328;52.054;5.294;2023-02-21T01:58:24;41.83;;;14.20;;
69985;SDS011;57328;52.054;5.294;2023-02-21T02:03:57;39.85;;;13.95;;
69985;SDS011;57328;52.054;5.294;2023-02-21T02:06:44;42.55;;;14.95;;
69985;SDS011;57328;52.054;5.294;2023-02-21T02:09:30;46.03;;;15.90;;
69985;SDS011;57328;52.054;5.294;2023-02-21T02:15:14;39.70;;;15.23;;
69985;SDS011;57328;52.054;5.294;2023-02-21T02:20:23;56.58;;;16.67;;
69985;SDS011;57328;52.054;5.294;2023-02-21T02:25:40;49.15;;;15.88;;
69985;SDS011;57328;52.054;5.294;2023-02-21T02:28:16;56.35;;;16.27;;
69985;SDS011;57328;52.054;5.294;2023-02-21T02:30:56;51.47;;;16.50;;
69985;SDS011;57328;52.054;5.294;2023-02-21T02:33:34;49.80;;;16.92;;
69985;SDS011;57328;52.054;5.294;2023-02-21T02:36:14;49.40;;;15.52;;
69985;SDS011;57328;52.054;5.294;2023-02-21T02:38:55;55.72;;;17.23;;
69985;SDS011;57328;52.054;5.294;2023-02-21T02:43:53;53.05;;;16.20;;
69985;SDS011;57328;52.054;5.294;2023-02-21T02:48:56;49.08;;;16.40;;
69985;SDS011;57328;52.054;5.294;2023-02-21T02:51:24;59.90;;;17.15;;
69985;SDS011;57328;52.054;5.294;2023-02-21T02:53:52;53.72;;;16.20;;
69985;SDS011;57328;52.054;5.294;2023-02-21T02:56:19;54.55;;;15.75;;
69985;SDS011;57328;52.054;5.294;2023-02-21T02:58:51;61.00;;;16.85;;
69985;SDS011;57328;52.054;5.294;2023-02-21T03:01:26;57.72;;;15.57;;
69985;SDS011;57328;52.054;5.294;2023-02-21T03:11:46;71.60;;;18.48;;
69985;SDS011;57328;52.054;5.294;2023-02-21T03:14:16;65.53;;;17.70;;
69985;SDS011;57328;52.054;5.294;2023-02-21T03:16:55;64.90;;;17.13;;
69985;SDS011;57328;52.054;5.294;2023-02-21T03:19:25;61.10;;;17.95;;
69985;SDS011;57328;52.054;5.294;2023-02-21T03:21:55;56.58;;;17.77;;
69985;SDS011;57328;52.054;5.294;2023-02-21T03:24:24;62.22;;;19.70;;
69985;SDS011;57328;52.054;5.294;2023-02-21T03:26:52;59.67;;;18.08;;
69985;SDS011;57328;52.054;5.294;2023-02-21T03:29:22;58.97;;;17.20;;
69985;SDS011;57328;52.054;5.294;2023-02-21T03:32:00;61.58;;;17.80;;
69985;SDS011;57328;52.054;5.294;2023-02-21T03:34:39;61.22;;;17.45;;
69985;SDS011;57328;52.054;5.294;2023-02-21T03:37:07;57.50;;;17.75;;
69985;SDS011;57328;52.054;5.294;2023-02-21T03:39:35;59.42;;;17.98;;
69985;SDS011;57328;52.054;5.294;2023-02-21T03:42:02;55.08;;;16.70;;
69985;SDS011;57328;52.054;5.294;2023-02-21T03:44:29;69.55;;;19.85;;
69985;SDS011;57328;52.054;5.294;2023-02-21T03:46:56;64.32;;;19.48;;
69985;SDS011;57328;52.054;5.294;2023-02-21T03:49:23;61.67;;;18.08;;
69985;SDS011;57328;52.054;5.294;2023-02-21T03:51:51;63.00;;;18.23;;
69985;SDS011;57328;52.054;5.294;2023-02-21T03:54:18;64.57;;;19.15;;
69985;SDS011;57328;52.054;5.294;2023-02-21T03:56:45;70.28;;;18.83;;
69985;SDS011;57328;52.054;5.294;2023-02-21T03:59:12;66.13;;;18.15;;
69985;SDS011;57328;52.054;5.294;2023-02-21T04:01:39;51.90;;;16.90;;
69985;SDS011;57328;52.054;5.294;2023-02-21T04:04:06;59.05;;;18.88;;
69985;SDS011;57328;52.054;5.294;2023-02-21T04:06:33;65.18;;;20.45;;
69985;SDS011;57328;52.054;5.294;2023-02-21T04:09:01;62.80;;;18.67;;
69985;SDS011;57328;52.054;5.294;2023-02-21T04:11:29;70.65;;;18.25;;
69985;SDS011;57328;52.054;5.294;2023-02-21T04:13:56;68.88;;;20.17;;
69985;SDS011;57328;52.054;5.294;2023-02-21T04:16:23;60.90;;;18.77;;
69985;SDS011;57328;52.054;5.294;2023-02-21T04:18:51;66.80;;;18.88;;
69985;SDS011;57328;52.054;5.294;2023-02-21T04:21:18;72.22;;;19.20;;
69985;SDS011;57328;52.054;5.294;2023-02-21T04:23:45;62.15;;;18.85;;
69985;SDS011;57328;52.054;5.294;2023-02-21T04:26:12;66.75;;;19.20;;
69985;SDS011;57328;52.054;5.294;2023-02-21T04:28:39;72.20;;;20.33;;
69985;SDS011;57328;52.054;5.294;2023-02-21T04:31:07;61.33;;;18.70;;
69985;SDS011;57328;52.054;5.294;2023-02-21T04:33:34;64.78;;;19.38;;
69985;SDS011;57328;52.054;5.294;2023-02-21T04:36:01;69.60;;;19.92;;
69985;SDS011;57328;52.054;5.294;2023-02-21T04:38:28;66.85;;;17.73;;
69985;SDS011;57328;52.054;5.294;2023-02-21T04:40:55;65.47;;;18.92;;
69985;SDS011;57328;52.054;5.294;2023-02-21T04:43:22;71.25;;;19.35;;
69985;SDS011;57328;52.054;5.294;2023-02-21T04:45:50;71.03;;;18.35;;
69985;SDS011;57328;52.054;5.294;2023-02-21T04:48:17;76.57;;;20.23;;
69985;SDS011;57328;52.054;5.294;2023-02-21T04:50:45;82.50;;;20.73;;
69985;SDS011;57328;52.054;5.294;2023-02-21T04:53:12;70.45;;;19.42;;
69985;SDS011;57328;52.054;5.294;2023-02-21T04:55:40;77.43;;;19.08;;
69985;SDS011;57328;52.054;5.294;2023-02-21T04:58:07;76.47;;;20.45;;
69985;SDS011;57328;52.054;5.294;2023-02-21T05:00:34;77.45;;;20.60;;
69985;SDS011;57328;52.054;5.294;2023-02-21T05:03:01;69.57;;;19.55;;
69985;SDS011;57328;52.054;5.294;2023-02-21T05:05:28;75.53;;;19.30;;
69985;SDS011;57328;52.054;5.294;2023-02-21T05:07:56;82.43;;;19.70;;
69985;SDS011;57328;52.054;5.294;2023-02-21T05:10:23;77.65;;;20.40;;
69985;SDS011;57328;52.054;5.294;2023-02-21T05:13:01;73.60;;;20.17;;
69985;SDS011;57328;52.054;5.294;2023-02-21T05:15:29;70.53;;;19.02;;
69985;SDS011;57328;52.054;5.294;2023-02-21T05:17:56;83.10;;;21.70;;
69985;SDS011;57328;52.054;5.294;2023-02-21T05:20:23;81.35;;;21.00;;
69985;SDS011;57328;52.054;5.294;2023-02-21T05:22:50;87.90;;;21.25;;
69985;SDS011;57328;52.054;5.294;2023-02-21T05:25:21;76.30;;;20.67;;
69985;SDS011;57328;52.054;5.294;2023-02-21T05:27:50;85.47;;;22.38;;
69985;SDS011;57328;52.054;5.294;2023-02-21T05:30:18;78.03;;;20.13;;
69985;SDS011;57328;52.054;5.294;2023-02-21T05:32:45;91.20;;;20.95;;
69985;SDS011;57328;52.054;5.294;2023-02-21T05:35:13;76.05;;;20.13;;
69985;SDS011;57328;52.054;5.294;2023-02-21T05:37:41;75.20;;;18.48;;
69985;SDS011;57328;52.054;5.294;2023-02-21T05:40:09;83.43;;;20.70;;
69985;SDS011;57328;52.054;5.294;2023-02-21T05:42:37;87.07;;;20.75;;
69985;SDS011;57328;52.054;5.294;2023-02-21T05:45:05;75.93;;;17.95;;
69985;SDS011;57328;52.054;5.294;2023-02-21T05:47:32;89.70;;;20.90;;
69985;SDS011;57328;52.054;5.294;2023-02-21T05:50:00;86.47;;;19.35;;
69985;SDS011;57328;52.054;5.294;2023-02-21T05:52:27;84.90;;;19.58;;
69985;SDS011;57328;52.054;5.294;2023-02-21T05:54:54;85.72;;;21.33;;
69985;SDS011;57328;52.054;5.294;2023-02-21T05:57:21;85.78;;;20.33;;
69985;SDS011;57328;52.054;5.294;2023-02-21T05:59:48;86.15;;;21.27;;
69985;SDS011;57328;52.054;5.294;2023-02-21T06:02:16;84.95;;;20.67;;
69985;SDS011;57328;52.054;5.294;2023-02-21T06:04:44;92.50;;;22.15;;
69985;SDS011;57328;52.054;5.294;2023-02-21T06:07:11;103.30;;;22.40;;
69985;SDS011;57328;52.054;5.294;2023-02-21T06:09:38;100.80;;;20.90;;
69985;SDS011;57328;52.054;5.294;2023-02-21T06:12:05;103.30;;;22.17;;
69985;SDS011;57328;52.054;5.294;2023-02-21T06:14:32;96.90;;;22.42;;
69985;SDS011;57328;52.054;5.294;2023-02-21T06:16:59;104.60;;;23.08;;
69985;SDS011;57328;52.054;5.294;2023-02-21T06:19:28;93.45;;;21.73;;
69985;SDS011;57328;52.054;5.294;2023-02-21T06:21:58;96.57;;;22.60;;
69985;SDS011;57328;52.054;5.294;2023-02-21T06:24:25;93.65;;;21.23;;
69985;SDS011;57328;52.054;5.294;2023-02-21T06:26:52;104.53;;;23.27;;
69985;SDS011;57328;52.054;5.294;2023-02-21T06:29:19;107.88;;;24.25;;
69985;SDS011;57328;52.054;5.294;2023-02-21T06:31:46;107.60;;;23.65;;
69985;SDS011;57328;52.054;5.294;2023-02-21T06:34:14;99.10;;;22.65;;
69985;SDS011;57328;52.054;5.294;2023-02-21T06:36:41;108.53;;;25.00;;
69985;SDS011;57328;52.054;5.294;2023-02-21T06:39:08;105.25;;;24.50;;
69985;SDS011;57328;52.054;5.294;2023-02-21T06:41:36;114.03;;;25.08;;
69985;SDS011;57328;52.054;5.294;2023-02-21T06:44:04;112.50;;;23.40;;
69985;SDS011;57328;52.054;5.294;2023-02-21T06:46:31;120.30;;;24.67;;
69985;SDS011;57328;52.054;5.294;2023-02-21T06:49:00;103.53;;;24.40;;
69985;SDS011;57328;52.054;5.294;2023-02-21T06:51:32;121.75;;;25.42;;
69985;SDS011;57328;52.054;5.294;2023-02-21T06:53:59;115.22;;;24.20;;
69985;SDS011;57328;52.054;5.294;2023-02-21T06:56:27;118.70;;;23.55;;
69985;SDS011;57328;52.054;5.294;2023-02-21T06:58:54;112.35;;;24.75;;
69985;SDS011;57328;52.054;5.294;2023-02-21T07:01:21;115.40;;;24.58;;
69985;SDS011;57328;52.054;5.294;2023-02-21T07:03:49;117.28;;;24.92;;
69985;SDS011;57328;52.054;5.294;2023-02-21T07:06:16;111.35;;;24.40;;
69985;SDS011;57328;52.054;5.294;2023-02-21T07:08:43;130.30;;;26.42;;
69985;SDS011;57328;52.054;5.294;2023-02-21T07:11:10;126.05;;;25.13;;
69985;SDS011;57328;52.054;5.294;2023-02-21T07:13:38;113.20;;;24.58;;
69985;SDS011;57328;52.054;5.294;2023-02-21T07:16:05;119.88;;;24.00;;
69985;SDS011;57328;52.054;5.294;2023-02-21T07:18:32;134.27;;;25.80;;
69985;SDS011;57328;52.054;5.294;2023-02-21T07:21:00;126.90;;;26.33;;
69985;SDS011;57328;52.054;5.294;2023-02-21T07:23:28;126.63;;;25.95;;
69985;SDS011;57328;52.054;5.294;2023-02-21T07:25:55;118.50;;;25.10;;
69985;SDS011;57328;52.054;5.294;2023-02-21T07:28:22;110.82;;;24.83;;
69985;SDS011;57328;52.054;5.294;2023-02-21T07:30:49;105.82;;;23.50;;
69985;SDS011;57328;52.054;5.294;2023-02-21T07:33:16;131.18;;;26.60;;
69985;SDS011;57328;52.054;5.294;2023-02-21T07:35:43;128.55;;;26.25;;
69985;SDS011;57328;52.054;5.294;2023-02-21T07:40:48;118.47;;;25.13;;
69985;SDS011;57328;52.054;5.294;2023-02-21T07:43:15;115.68;;;24.70;;
69985;SDS011;57328;52.054;5.294;2023-02-21T07:45:42;127.53;;;25.33;;
69985;SDS011;57328;52.054;5.294;2023-02-21T07:48:09;121.57;;;25.65;;
69985;SDS011;57328;52.054;5.294;2023-02-21T07:50:40;123.07;;;24.52;;
69985;SDS011;57328;52.054;5.294;2023-02-21T07:53:07;113.15;;;23.45;;
69985;SDS011;57328;52.054;5.294;2023-02-21T07:55:36;115.63;;;25.45;;
69985;SDS011;57328;52.054;5.294;2023-02-21T07:58:03;118.70;;;25.05;;
69985;SDS011;57328;52.054;5.294;2023-02-21T08:00:31;123.38;;;27.30;;
69985;SDS011;57328;52.054;5.294;2023-02-21T08:02:58;130.15;;;24.10;;
69985;SDS011;57328;52.054;5.294;2023-02-21T08:05:25;117.45;;;23.83;;
69985;SDS011;57328;52.054;5.294;2023-02-21T08:07:53;114.43;;;24.48;;
69985;SDS011;57328;52.054;5.294;2023-02-21T08:10:22;110.03;;;22.38;;
69985;SDS011;57328;52.054;5.294;2023-02-21T08:15:17;102.00;;;22.08;;
69985;SDS011;57328;52.054;5.294;2023-02-21T08:17:47;109.75;;;21.92;;
69985;SDS011;57328;52.054;5.294;2023-02-21T08:20:15;92.68;;;21.35;;
69985;SDS011;57328;52.054;5.294;2023-02-21T08:22:42;106.30;;;22.60;;
69985;SDS011;57328;52.054;5.294;2023-02-21T08:25:10;94.50;;;20.90;;
69985;SDS011;57328;52.054;5.294;2023-02-21T08:27:38;98.65;;;22.33;;
69985;SDS011;57328;52.054;5.294;2023-02-21T08:30:09;96.85;;;22.67;;
69985;SDS011;57328;52.054;5.294;2023-02-21T08:32:37;92.43;;;20.85;;
69985;SDS011;57328;52.054;5.294;2023-02-21T08:35:04;92.10;;;20.20;;
69985;SDS011;57328;52.054;5.294;2023-02-21T08:37:34;91.88;;;20.15;;
69985;SDS011;57328;52.054;5.294;2023-02-21T08:40:06;87.30;;;20.23;;
69985;SDS011;57328;52.054;5.294;2023-02-21T08:42:33;93.60;;;21.30;;
69985;SDS011;57328;52.054;5.294;2023-02-21T08:45:04;96.07;;;21.15;;
69985;SDS011;57328;52.054;5.294;2023-02-21T08:47:33;90.82;;;20.05;;
69985;SDS011;57328;52.054;5.294;2023-02-21T08:50:01;98.65;;;21.38;;
69985;SDS011;57328;52.054;5.294;2023-02-21T08:52:29;100.78;;;21.65;;
69985;SDS011;57328;52.054;5.294;2023-02-21T08:54:56;89.07;;;19.38;;
69985;SDS011;57328;52.054;5.294;2023-02-21T08:57:23;84.80;;;20.05;;
69985;SDS011;57328;52.054;5.294;2023-02-21T08:59:50;90.35;;;21.45;;
69985;SDS011;57328;52.054;5.294;2023-02-21T09:02:19;91.93;;;20.90;;
69985;SDS011;57328;52.054;5.294;2023-02-21T09:04:46;91.32;;;20.65;;
69985;SDS011;57328;52.054;5.294;2023-02-21T09:07:14;86.38;;;20.70;;
69985;SDS011;57328;52.054;5.294;2023-02-21T09:09:42;92.93;;;19.80;;
69985;SDS011;57328;52.054;5.294;2023-02-21T09:12:09;82.47;;;18.33;;
69985;SDS011;57328;52.054;5.294;2023-02-21T09:14:37;74.47;;;18.85;;
69985;SDS011;57328;52.054;5.294;2023-02-21T09:17:05;77.35;;;18.83;;
69985;SDS011;57328;52.054;5.294;2023-02-21T09:19:33;82.53;;;19.88;;
69985;SDS011;57328;52.054;5.294;2023-02-21T09:22:00;76.65;;;18.63;;
69985;SDS011;57328;52.054;5.294;2023-02-21T09:24:29;78.70;;;18.67;;
69985;SDS011;57328;52.054;5.294;2023-02-21T09:26:57;79.50;;;19.58;;
69985;SDS011;57328;52.054;5.294;2023-02-21T09:29:31;80.97;;;19.70;;
69985;SDS011;57328;52.054;5.294;2023-02-21T09:32:11;82.25;;;18.95;;
69985;SDS011;57328;52.054;5.294;2023-02-21T09:34:39;84.63;;;20.85;;
69985;SDS011;57328;52.054;5.294;2023-02-21T09:37:07;75.30;;;18.00;;
69985;SDS011;57328;52.054;5.294;2023-02-21T09:39:36;82.13;;;19.33;;
69985;SDS011;57328;52.054;5.294;2023-02-21T09:42:05;83.38;;;19.83;;
69985;SDS011;57328;52.054;5.294;2023-02-21T09:44:32;78.72;;;19.85;;
69985;SDS011;57328;52.054;5.294;2023-02-21T09:47:01;82.25;;;19.35;;
69985;SDS011;57328;52.054;5.294;2023-02-21T09:49:32;84.82;;;19.65;;
69985;SDS011;57328;52.054;5.294;2023-02-21T09:52:02;73.43;;;18.75;;
69985;SDS011;57328;52.054;5.294;2023-02-21T09:54:32;80.20;;;19.13;;
69985;SDS011;57328;52.054;5.294;2023-02-21T09:57:03;76.20;;;19.77;;
69985;SDS011;57328;52.054;5.294;2023-02-21T09:59:31;84.85;;;19.27;;
69985;SDS011;57328;52.054;5.294;2023-02-21T10:07:21;79.43;;;19.90;;
69985;SDS011;57328;52.054;5.294;2023-02-21T10:15:40;70.53;;;17.90;;
69985;SDS011;57328;52.054;5.294;2023-02-21T10:18:15;70.78;;;17.70;;
69985;SDS011;57328;52.054;5.294;2023-02-21T10:23:16;76.53;;;19.02;;
69985;SDS011;57328;52.054;5.294;2023-02-21T10:25:44;76.65;;;17.95;;
69985;SDS011;57328;52.054;5.294;2023-02-21T10:28:19;79.28;;;20.00;;
69985;SDS011;57328;52.054;5.294;2023-02-21T10:30:49;78.90;;;19.00;;
69985;SDS011;57328;52.054;5.294;2023-02-21T10:33:18;70.50;;;18.05;;
69985;SDS011;57328;52.054;5.294;2023-02-21T10:35:45;77.72;;;18.02;;
69985;SDS011;57328;52.054;5.294;2023-02-21T10:38:18;75.63;;;17.08;;
69985;SDS011;57328;52.054;5.294;2023-02-21T10:40:47;78.20;;;19.10;;
69985;SDS011;57328;52.054;5.294;2023-02-21T10:43:36;82.40;;;20.27;;
69985;SDS011;57328;52.054;5.294;2023-02-21T10:46:19;71.22;;;17.67;;
69985;SDS011;57328;52.054;5.294;2023-02-21T10:48:49;76.47;;;19.85;;
69985;SDS011;57328;52.054;5.294;2023-02-21T10:51:33;86.40;;;20.35;;
69985;SDS011;57328;52.054;5.294;2023-02-21T10:54:18;85.05;;;21.05;;
69985;SDS011;57328;52.054;5.294;2023-02-21T10:56:49;84.43;;;20.92;;
69985;SDS011;57328;52.054;5.294;2023-02-21T11:01:48;81.35;;;20.55;;
69985;SDS011;57328;52.054;5.294;2023-02-21T11:06:46;84.85;;;21.55;;
69985;SDS011;57328;52.054;5.294;2023-02-21T11:09:22;92.38;;;22.25;;
69985;SDS011;57328;52.054;5.294;2023-02-21T11:11:58;78.80;;;20.40;;
69985;SDS011;57328;52.054;5.294;2023-02-21T11:14:26;83.35;;;21.48;;
69985;SDS011;57328;52.054;5.294;2023-02-21T11:19:46;80.95;;;19.92;;
69985;SDS011;57328;52.054;5.294;2023-02-21T11:22:14;76.03;;;19.73;;
69985;SDS011;57328;52.054;5.294;2023-02-21T11:24:53;82.15;;;20.23;;
69985;SDS011;57328;52.054;5.294;2023-02-21T11:27:21;76.53;;;20.25;;
69985;SDS011;57328;52.054;5.294;2023-02-21T11:29:49;84.47;;;19.92;;
69985;SDS011;57328;52.054;5.294;2023-02-21T11:32:25;77.50;;;19.48;;
69985;SDS011;57328;52.054;5.294;2023-02-21T11:35:03;80.85;;;18.85;;
69985;SDS011;57328;52.054;5.294;2023-02-21T11:37:31;71.20;;;18.58;;
69985;SDS011;57328;52.054;5.294;2023-02-21T11:39:59;74.97;;;19.23;;
69985;SDS011;57328;52.054;5.294;2023-02-21T11:42:31;85.22;;;19.63;;
69985;SDS011;57328;52.054;5.294;2023-02-21T11:47:37;82.15;;;19.92;;
69985;SDS011;57328;52.054;5.294;2023-02-21T11:50:23;84.78;;;20.58;;
69985;SDS011;57328;52.054;5.294;2023-02-21T11:55:18;71.95;;;19.30;;
69985;SDS011;57328;52.054;5.294;2023-02-21T12:00:46;79.53;;;19.98;;
69985;SDS011;57328;52.054;5.294;2023-02-21T12:03:33;73.13;;;18.02;;
69985;SDS011;57328;52.054;5.294;2023-02-21T12:06:04;67.03;;;17.10;;
69985;SDS011;57328;52.054;5.294;2023-02-21T12:08:43;60.58;;;16.52;;
69985;SDS011;57328;52.054;5.294;2023-02-21T12:11:21;61.58;;;15.68;;
69985;SDS011;57328;52.054;5.294;2023-02-21T12:22:01;48.05;;;13.02;;
69985;SDS011;57328;52.054;5.294;2023-02-21T12:24:34;54.10;;;14.32;;
69985;SDS011;57328;52.054;5.294;2023-02-21T12:27:16;46.15;;;13.75;;
69985;SDS011;57328;52.054;5.294;2023-02-21T12:35:01;48.20;;;13.68;;
69985;SDS011;57328;52.054;5.294;2023-02-21T12:40:03;38.30;;;11.45;;
69985;SDS011;57328;52.054;5.294;2023-02-21T12:45:15;35.55;;;10.38;;
69985;SDS011;57328;52.054;5.294;2023-02-21T12:47:50;30.15;;;9.90;;
69985;SDS011;57328;52.054;5.294;2023-02-21T12:50:29;32.75;;;9.77;;
69985;SDS011;57328;52.054;5.294;2023-02-21T12:53:09;27.08;;;8.23;;
69985;SDS011;57328;52.054;5.294;2023-02-21T12:55:47;25.70;;;8.40;;
69985;SDS011;57328;52.054;5.294;2023-02-21T13:01:10;24.13;;;7.20;;
69985;SDS011;57328;52.054;5.294;2023-02-21T13:11:24;25.70;;;8.20;;
69985;SDS011;57328;52.054;5.294;2023-02-21T13:13:53;20.77;;;7.10;;
69985;SDS011;57328;52.054;5.294;2023-02-21T13:16:21;22.40;;;7.22;;
69985;SDS011;57328;52.054;5.294;2023-02-21T13:18:56;21.05;;;7.18;;
69985;SDS011;57328;52.054;5.294;2023-02-21T13:29:43;17.98;;;6.90;;
69985;SDS011;57328;52.054;5.294;2023-02-21T13:32:14;18.67;;;6.53;;
69985;SDS011;57328;52.054;5.294;2023-02-21T13:34:53;18.65;;;6.28;;
69985;SDS011;57328;52.054;5.294;2023-02-21T13:37:22;19.65;;;7.57;;
69985;SDS011;57328;52.054;5.294;2023-02-21T13:39:50;19.30;;;7.40;;
69985;SDS011;57328;52.054;5.294;2023-02-21T13:42:23;18.05;;;6.85;;
69985;SDS011;57328;52.054;5.294;2023-02-21T13:48:09;21.08;;;8.25;;
69985;SDS011;57328;52.054;5.294;2023-02-21T14:01:20;22.35;;;8.20;;
69985;SDS011;57328;52.054;5.294;2023-02-21T14:03:48;24.30;;;8.00;;
69985;SDS011;57328;52.054;5.294;2023-02-21T14:06:30;23.20;;;7.80;;
69985;SDS011;57328;52.054;5.294;2023-02-21T14:09:11;23.13;;;7.57;;
69985;SDS011;57328;52.054;5.294;2023-02-21T14:11:46;21.88;;;7.00;;
69985;SDS011;57328;52.054;5.294;2023-02-21T14:14:22;20.23;;;7.30;;
69985;SDS011;57328;52.054;5.294;2023-02-21T14:17:02;21.48;;;7.13;;
69985;SDS011;57328;52.054;5.294;2023-02-21T14:24:48;16.98;;;6.13;;
69985;SDS011;57328;52.054;5.294;2023-02-21T14:29:44;17.27;;;6.35;;
69985;SDS011;57328;52.054;5.294;2023-02-21T14:39:44;17.83;;;6.15;;
69985;SDS011;57328;52.054;5.294;2023-02-21T14:52:58;18.00;;;6.85;;
69985;SDS011;57328;52.054;5.294;2023-02-21T15:00:32;17.10;;;6.47;;
69985;SDS011;57328;52.054;5.294;2023-02-21T15:08:14;16.33;;;6.13;;
69985;SDS011;57328;52.054;5.294;2023-02-21T15:10:47;16.27;;;6.00;;
69985;SDS011;57328;52.054;5.294;2023-02-21T15:13:50;16.88;;;6.45;;
69985;SDS011;57328;52.054;5.294;2023-02-21T15:16:09;18.70;;;6.85;;
69985;SDS011;57328;52.054;5.294;2023-02-21T15:18:39;17.08;;;7.13;;
69985;SDS011;57328;52.054;5.294;2023-02-21T15:23:37;17.30;;;6.57;;
69985;SDS011;57328;52.054;5.294;2023-02-21T15:28:46;17.70;;;7.63;;
69985;SDS011;57328;52.054;5.294;2023-02-21T15:31:31;18.23;;;7.32;;
69985;SDS011;57328;52.054;5.294;2023-02-21T15:33:59;18.60;;;6.93;;
69985;SDS011;57328;52.054;5.294;2023-02-21T15:36:27;17.67;;;6.47;;
69985;SDS011;57328;52.054;5.294;2023-02-21T15:44:18;20.92;;;8.15;;
69985;SDS011;57328;52.054;5.294;2023-02-21T15:46:54;20.33;;;8.05;;
69985;SDS011;57328;52.054;5.294;2023-02-21T15:49:26;15.55;;;6.30;;
69985;SDS011;57328;52.054;5.294;2023-02-21T15:51:54;16.58;;;6.38;;
69985;SDS011;57328;52.054;5.294;2023-02-21T15:54:26;14.13;;;6.28;;
69985;SDS011;57328;52.054;5.294;2023-02-21T15:57:17;15.32;;;6.40;;
69985;SDS011;57328;52.054;5.294;2023-02-21T15:59:46;13.50;;;5.72;;
69985;SDS011;57328;52.054;5.294;2023-02-21T16:02:14;13.95;;;5.55;;
69985;SDS011;57328;52.054;5.294;2023-02-21T16:04:43;15.38;;;5.75;;
69985;SDS011;57328;52.054;5.294;2023-02-21T16:07:53;15.20;;;5.68;;
69985;SDS011;57328;52.054;5.294;2023-02-21T16:10:04;16.83;;;6.30;;
69985;SDS011;57328;52.054;5.294;2023-02-21T16:12:34;15.05;;;6.10;;
69985;SDS011;57328;52.054;5.294;2023-02-21T16:15:05;13.85;;;5.43;;
69985;SDS011;57328;52.054;5.294;2023-02-21T16:17:35;13.32;;;5.65;;
69985;SDS011;57328;52.054;5.294;2023-02-21T16:20:16;15.75;;;6.45;;
69985;SDS011;57328;52.054;5.294;2023-02-21T16:22:47;16.73;;;7.25;;
69985;SDS011;57328;52.054;5.294;2023-02-21T16:25:35;15.85;;;6.82;;
69985;SDS011;57328;52.054;5.294;2023-02-21T16:28:20;16.48;;;6.95;;
69985;SDS011;57328;52.054;5.294;2023-02-21T16:30:47;14.35;;;6.78;;
69985;SDS011;57328;52.054;5.294;2023-02-21T16:33:14;17.40;;;8.02;;
69985;SDS011;57328;52.054;5.294;2023-02-21T16:35:42;14.77;;;6.30;;
69985;SDS011;57328;52.054;5.294;2023-02-21T16:38:12;14.65;;;5.97;;
69985;SDS011;57328;52.054;5.294;2023-02-21T16:40:40;15.57;;;6.32;;
69985;SDS011;57328;52.054;5.294;2023-02-21T16:43:23;17.55;;;7.07;;
69985;SDS011;57328;52.054;5.294;2023-02-21T16:45:51;26.90;;;10.85;;
69985;SDS011;57328;52.054;5.294;2023-02-21T16:48:21;27.58;;;11.27;;
69985;SDS011;57328;52.054;5.294;2023-02-21T16:50:50;22.50;;;8.20;;
69985;SDS011;57328;52.054;5.294;2023-02-21T16:53:18;24.60;;;10.10;;
69985;SDS011;57328;52.054;5.294;2023-02-21T16:55:45;27.48;;;10.75;;
69985;SDS011;57328;52.054;5.294;2023-02-21T16:58:32;33.15;;;12.13;;
69985;SDS011;57328;52.054;5.294;2023-02-21T17:03:27;19.20;;;8.02;;
69985;SDS011;57328;52.054;5.294;2023-02-21T17:05:55;22.55;;;8.15;;
69985;SDS011;57328;52.054;5.294;2023-02-21T17:08:23;20.05;;;6.93;;
69985;SDS011;57328;52.054;5.294;2023-02-21T17:10:52;22.20;;;8.05;;
69985;SDS011;57328;52.054;5.294;2023-02-21T17:13:19;18.13;;;6.82;;
69985;SDS011;57328;52.054;5.294;2023-02-21T17:15:46;19.35;;;7.07;;
69985;SDS011;57328;52.054;5.294;2023-02-21T17:18:14;18.52;;;8.10;;
69985;SDS011;57328;52.054;5.294;2023-02-21T17:20:41;25.15;;;9.43;;
69985;SDS011;57328;52.054;5.294;2023-02-21T17:23:08;20.75;;;7.32;;
69985;SDS011;57328;52.054;5.294;2023-02-21T17:25:35;17.48;;;6.82;;
69985;SDS011;57328;52.054;5.294;2023-02-21T17:28:03;18.85;;;7.43;;
69985;SDS011;57328;52.054;5.294;2023-02-21T17:30:30;21.65;;;7.68;;
69985;SDS011;57328;52.054;5.294;2023-02-21T17:32:57;20.25;;;8.13;;
69985;SDS011;57328;52.054;5.294;2023-02-21T17:35:25;23.42;;;9.85;;